LSZ weather

Lošinj Island Airport
Lošinj, Primorje-Gorski Kotar County, Croatia

Public forecast

Using degrees Celsius for public forecast. Weather courtesy of forecast.io.

Current aviation weather report (METAR) for Lošinj Island Airport

Report is more than 6 hours old.

Retrieved 2020/05/31 14:00 UTC (2 days ago):

LDLO 311400Z 29010KT CAVOK 19/08 Q1015

Aviation forecast (TAF) for Lošinj Island Airport

Forecast is more than 12 hours old.

Retrieved 2020/05/31 12:00 UTC (2 days ago):

TAF LDLO 311125Z 3112/0112 30010KT 9999 FEW045 TX22/0111Z TN14/0104Z BECMG 3121/3123 02012KT PROB40 TEMPO 0106/0112 02018G28KT